sensor_id;sensor_type;location;lat;lon;timestamp;temperature;humidity
22635;DHT22;11484;50.858;4.384;2022-10-31T00:02:13;17.20;99.90
22635;DHT22;11484;50.858;4.384;2022-10-31T00:04:39;17.20;99.90
22635;DHT22;11484;50.858;4.384;2022-10-31T00:07:10;17.20;99.90
22635;DHT22;11484;50.858;4.384;2022-10-31T00:09:36;17.20;99.90
22635;DHT22;11484;50.858;4.384;2022-10-31T00:12:01;17.20;99.90
22635;DHT22;11484;50.858;4.384;2022-10-31T00:14:27;17.20;99.90
22635;DHT22;11484;50.858;4.384;2022-10-31T00:16:53;17.20;99.90
22635;DHT22;11484;50.858;4.384;2022-10-31T00:19:19;17.20;99.90
22635;DHT22;11484;50.858;4.384;2022-10-31T00:21:44;17.10;99.90
22635;DHT22;11484;50.858;4.384;2022-10-31T00:24:10;17.00;99.90
22635;DHT22;11484;50.858;4.384;2022-10-31T00:26:36;17.00;99.90
22635;DHT22;11484;50.858;4.384;2022-10-31T00:29:02;17.00;99.90
22635;DHT22;11484;50.858;4.384;2022-10-31T00:31:28;17.00;99.90
22635;DHT22;11484;50.858;4.384;2022-10-31T00:33:54;17.00;99.90
22635;DHT22;11484;50.858;4.384;2022-10-31T00:36:20;17.00;99.90
22635;DHT22;11484;50.858;4.384;2022-10-31T00:38:47;16.90;99.90
22635;DHT22;11484;50.858;4.384;2022-10-31T00:41:15;16.90;99.90
22635;DHT22;11484;50.858;4.384;2022-10-31T00:43:42;16.90;99.90
22635;DHT22;11484;50.858;4.384;2022-10-31T00:46:07;16.90;99.90
22635;DHT22;11484;50.858;4.384;2022-10-31T00:48:33;16.80;99.90
22635;DHT22;11484;50.858;4.384;2022-10-31T00:50:59;16.80;99.90
22635;DHT22;11484;50.858;4.384;2022-10-31T00:53:25;16.80;99.90
22635;DHT22;11484;50.858;4.384;2022-10-31T00:55:50;16.80;99.90
22635;DHT22;11484;50.858;4.384;2022-10-31T00:58:16;16.70;99.90
22635;DHT22;11484;50.858;4.384;2022-10-31T01:00:42;16.70;99.90
22635;DHT22;11484;50.858;4.384;2022-10-31T01:03:07;16.60;99.90
22635;DHT22;11484;50.858;4.384;2022-10-31T01:05:33;16.60;99.90
22635;DHT22;11484;50.858;4.384;2022-10-31T01:07:59;16.40;99.90
22635;DHT22;11484;50.858;4.384;2022-10-31T01:10:25;16.30;99.90
22635;DHT22;11484;50.858;4.384;2022-10-31T01:12:51;16.30;99.90
22635;DHT22;11484;50.858;4.384;2022-10-31T01:15:21;16.30;99.90
22635;DHT22;11484;50.858;4.384;2022-10-31T01:17:49;16.30;99.90
22635;DHT22;11484;50.858;4.384;2022-10-31T01:20:16;16.20;99.90
22635;DHT22;11484;50.858;4.384;2022-10-31T01:22:43;16.20;99.90
22635;DHT22;11484;50.858;4.384;2022-10-31T01:25:09;16.20;99.90
22635;DHT22;11484;50.858;4.384;2022-10-31T01:27:35;16.20;99.90
22635;DHT22;11484;50.858;4.384;2022-10-31T01:30:01;16.20;99.90
22635;DHT22;11484;50.858;4.384;2022-10-31T01:32:27;16.20;99.90
22635;DHT22;11484;50.858;4.384;2022-10-31T01:34:54;16.30;99.90
22635;DHT22;11484;50.858;4.384;2022-10-31T01:37:20;16.30;99.90
22635;DHT22;11484;50.858;4.384;2022-10-31T01:39:48;16.30;99.90
22635;DHT22;11484;50.858;4.384;2022-10-31T01:42:21;16.30;99.90
22635;DHT22;11484;50.858;4.384;2022-10-31T01:44:56;16.20;99.90
22635;DHT22;11484;50.858;4.384;2022-10-31T01:47:44;16.20;99.90
22635;DHT22;11484;50.858;4.384;2022-10-31T01:50:30;16.30;99.90
22635;DHT22;11484;50.858;4.384;2022-10-31T01:52:58;16.20;99.90
22635;DHT22;11484;50.858;4.384;2022-10-31T01:55:26;16.20;99.90
22635;DHT22;11484;50.858;4.384;2022-10-31T01:57:56;16.20;99.90
22635;DHT22;11484;50.858;4.384;2022-10-31T02:00:23;16.20;99.90
22635;DHT22;11484;50.858;4.384;2022-10-31T02:02:49;16.10;99.90
22635;DHT22;11484;50.858;4.384;2022-10-31T02:05:21;16.10;99.90
22635;DHT22;11484;50.858;4.384;2022-10-31T02:08:12;16.00;99.90
22635;DHT22;11484;50.858;4.384;2022-10-31T02:10:40;16.00;99.90
22635;DHT22;11484;50.858;4.384;2022-10-31T02:13:08;16.00;99.90
22635;DHT22;11484;50.858;4.384;2022-10-31T02:15:35;16.00;99.90
22635;DHT22;11484;50.858;4.384;2022-10-31T02:18:02;15.90;99.90
22635;DHT22;11484;50.858;4.384;2022-10-31T02:20:33;15.90;99.90
22635;DHT22;11484;50.858;4.384;2022-10-31T02:31:29;15.90;99.90
22635;DHT22;11484;50.858;4.384;2022-10-31T02:37:14;15.90;99.90
22635;DHT22;11484;50.858;4.384;2022-10-31T02:39:54;15.90;99.90
22635;DHT22;11484;50.858;4.384;2022-10-31T02:47:54;15.90;99.90
22635;DHT22;11484;50.858;4.384;2022-10-31T02:50:28;15.90;99.90
22635;DHT22;11484;50.858;4.384;2022-10-31T02:52:55;15.90;99.90
22635;DHT22;11484;50.858;4.384;2022-10-31T02:57:58;15.80;99.90
22635;DHT22;11484;50.858;4.384;2022-10-31T03:00:25;15.70;99.90
22635;DHT22;11484;50.858;4.384;2022-10-31T03:06:13;15.70;99.90
22635;DHT22;11484;50.858;4.384;2022-10-31T03:11:12;15.70;99.90
22635;DHT22;11484;50.858;4.384;2022-10-31T03:13:45;15.80;99.90
22635;DHT22;11484;50.858;4.384;2022-10-31T03:16:33;15.70;99.90
22635;DHT22;11484;50.858;4.384;2022-10-31T03:19:06;15.80;99.90
22635;DHT22;11484;50.858;4.384;2022-10-31T03:21:43;15.80;99.90
22635;DHT22;11484;50.858;4.384;2022-10-31T03:24:11;15.80;99.90
22635;DHT22;11484;50.858;4.384;2022-10-31T03:26:42;15.80;99.90
22635;DHT22;11484;50.858;4.384;2022-10-31T03:29:10;15.80;99.90
22635;DHT22;11484;50.858;4.384;2022-10-31T03:31:40;15.80;99.90
22635;DHT22;11484;50.858;4.384;2022-10-31T03:34:09;15.70;99.90
22635;DHT22;11484;50.858;4.384;2022-10-31T03:36:38;15.70;99.90
22635;DHT22;11484;50.858;4.384;2022-10-31T03:39:07;15.70;99.90
22635;DHT22;11484;50.858;4.384;2022-10-31T03:41:38;15.70;99.90
22635;DHT22;11484;50.858;4.384;2022-10-31T03:44:07;15.70;99.90
22635;DHT22;11484;50.858;4.384;2022-10-31T03:46:34;15.60;99.90
22635;DHT22;11484;50.858;4.384;2022-10-31T03:49:00;15.60;99.90
22635;DHT22;11484;50.858;4.384;2022-10-31T03:51:36;15.50;99.90
22635;DHT22;11484;50.858;4.384;2022-10-31T03:56:52;15.50;99.90
22635;DHT22;11484;50.858;4.384;2022-10-31T03:59:27;15.50;99.90
22635;DHT22;11484;50.858;4.384;2022-10-31T04:01:58;15.40;99.90
22635;DHT22;11484;50.858;4.384;2022-10-31T04:04:27;15.40;99.90
22635;DHT22;11484;50.858;4.384;2022-10-31T04:06:56;15.50;99.90
22635;DHT22;11484;50.858;4.384;2022-10-31T04:09:23;15.40;99.90
22635;DHT22;11484;50.858;4.384;2022-10-31T04:11:53;15.40;99.90
22635;DHT22;11484;50.858;4.384;2022-10-31T04:14:21;15.50;99.90
22635;DHT22;11484;50.858;4.384;2022-10-31T04:16:47;15.50;99.90
22635;DHT22;11484;50.858;4.384;2022-10-31T04:19:14;15.40;99.90
22635;DHT22;11484;50.858;4.384;2022-10-31T04:21:40;15.40;99.90
22635;DHT22;11484;50.858;4.384;2022-10-31T04:24:09;15.40;99.90
22635;DHT22;11484;50.858;4.384;2022-10-31T04:26:35;15.30;99.90
22635;DHT22;11484;50.858;4.384;2022-10-31T04:29:01;15.30;99.90
22635;DHT22;11484;50.858;4.384;2022-10-31T04:31:26;15.30;99.90
22635;DHT22;11484;50.858;4.384;2022-10-31T04:33:52;15.30;99.90
22635;DHT22;11484;50.858;4.384;2022-10-31T04:36:18;15.40;99.90
22635;DHT22;11484;50.858;4.384;2022-10-31T04:38:44;15.40;99.90
22635;DHT22;11484;50.858;4.384;2022-10-31T04:41:09;15.30;99.90
22635;DHT22;11484;50.858;4.384;2022-10-31T04:43:35;15.20;99.90
22635;DHT22;11484;50.858;4.384;2022-10-31T04:46:01;15.20;99.90
22635;DHT22;11484;50.858;4.384;2022-10-31T04:48:27;15.20;99.90
22635;DHT22;11484;50.858;4.384;2022-10-31T04:50:52;15.20;99.90
22635;DHT22;11484;50.858;4.384;2022-10-31T04:53:18;15.20;99.90
22635;DHT22;11484;50.858;4.384;2022-10-31T04:55:43;15.20;99.90
22635;DHT22;11484;50.858;4.384;2022-10-31T04:58:10;15.20;99.90
22635;DHT22;11484;50.858;4.384;2022-10-31T05:00:36;15.20;99.90
22635;DHT22;11484;50.858;4.384;2022-10-31T05:03:02;15.20;99.90
22635;DHT22;11484;50.858;4.384;2022-10-31T05:05:29;15.20;99.90
22635;DHT22;11484;50.858;4.384;2022-10-31T05:07:56;15.10;99.90
22635;DHT22;11484;50.858;4.384;2022-10-31T05:10:25;15.10;99.90
22635;DHT22;11484;50.858;4.384;2022-10-31T05:13:01;15.00;99.90
22635;DHT22;11484;50.858;4.384;2022-10-31T05:15:27;15.00;99.90
22635;DHT22;11484;50.858;4.384;2022-10-31T05:17:54;15.00;99.90
22635;DHT22;11484;50.858;4.384;2022-10-31T05:20:22;15.10;99.90
22635;DHT22;11484;50.858;4.384;2022-10-31T05:22:50;15.20;99.90
22635;DHT22;11484;50.858;4.384;2022-10-31T05:25:17;15.20;99.90
22635;DHT22;11484;50.858;4.384;2022-10-31T05:27:45;15.20;99.90
22635;DHT22;11484;50.858;4.384;2022-10-31T05:30:13;15.30;99.90
22635;DHT22;11484;50.858;4.384;2022-10-31T05:32:40;15.30;99.90
22635;DHT22;11484;50.858;4.384;2022-10-31T05:35:11;15.40;99.90
22635;DHT22;11484;50.858;4.384;2022-10-31T05:37:37;15.40;99.90
22635;DHT22;11484;50.858;4.384;2022-10-31T05:40:04;15.50;99.90
22635;DHT22;11484;50.858;4.384;2022-10-31T05:42:30;15.50;99.90
22635;DHT22;11484;50.858;4.384;2022-10-31T05:44:55;15.50;99.90
22635;DHT22;11484;50.858;4.384;2022-10-31T05:47:21;15.50;99.90
22635;DHT22;11484;50.858;4.384;2022-10-31T05:49:47;15.40;99.90
22635;DHT22;11484;50.858;4.384;2022-10-31T05:52:12;15.40;99.90
22635;DHT22;11484;50.858;4.384;2022-10-31T05:54:38;15.40;99.90
22635;DHT22;11484;50.858;4.384;2022-10-31T05:57:04;15.40;99.90
22635;DHT22;11484;50.858;4.384;2022-10-31T05:59:30;15.30;99.90
22635;DHT22;11484;50.858;4.384;2022-10-31T06:01:55;15.30;99.90
22635;DHT22;11484;50.858;4.384;2022-10-31T06:07:00;15.30;99.90
22635;DHT22;11484;50.858;4.384;2022-10-31T06:09:26;15.30;99.90
22635;DHT22;11484;50.858;4.384;2022-10-31T06:11:52;15.30;99.90
22635;DHT22;11484;50.858;4.384;2022-10-31T06:14:18;15.30;99.90
22635;DHT22;11484;50.858;4.384;2022-10-31T06:16:43;15.30;99.90
22635;DHT22;11484;50.858;4.384;2022-10-31T06:19:09;15.30;99.90
22635;DHT22;11484;50.858;4.384;2022-10-31T06:21:35;15.40;99.90
22635;DHT22;11484;50.858;4.384;2022-10-31T06:24:00;15.30;99.90
22635;DHT22;11484;50.858;4.384;2022-10-31T06:26:26;15.30;99.90
22635;DHT22;11484;50.858;4.384;2022-10-31T06:28:52;15.30;99.90
22635;DHT22;11484;50.858;4.384;2022-10-31T06:31:17;15.40;99.90
22635;DHT22;11484;50.858;4.384;2022-10-31T06:33:43;15.40;99.90
22635;DHT22;11484;50.858;4.384;2022-10-31T06:36:10;15.40;99.90
22635;DHT22;11484;50.858;4.384;2022-10-31T06:38:35;15.50;99.90
22635;DHT22;11484;50.858;4.384;2022-10-31T06:41:05;15.40;99.90
22635;DHT22;11484;50.858;4.384;2022-10-31T06:43:32;15.40;99.90
22635;DHT22;11484;50.858;4.384;2022-10-31T06:46:02;15.40;99.90
22635;DHT22;11484;50.858;4.384;2022-10-31T06:48:28;15.40;99.90
22635;DHT22;11484;50.858;4.384;2022-10-31T06:50:58;15.40;99.90
22635;DHT22;11484;50.858;4.384;2022-10-31T06:53:24;15.50;99.90
22635;DHT22;11484;50.858;4.384;2022-10-31T06:55:49;15.60;99.90
22635;DHT22;11484;50.858;4.384;2022-10-31T06:58:15;15.70;99.90
22635;DHT22;11484;50.858;4.384;2022-10-31T07:00:41;15.80;99.90
22635;DHT22;11484;50.858;4.384;2022-10-31T07:03:10;15.80;99.90
22635;DHT22;11484;50.858;4.384;2022-10-31T07:05:37;15.90;99.90
22635;DHT22;11484;50.858;4.384;2022-10-31T07:08:05;15.90;99.90
22635;DHT22;11484;50.858;4.384;2022-10-31T07:10:33;15.90;99.90
22635;DHT22;11484;50.858;4.384;2022-10-31T07:13:02;15.80;99.90
22635;DHT22;11484;50.858;4.384;2022-10-31T07:15:29;15.90;99.90
22635;DHT22;11484;50.858;4.384;2022-10-31T07:18:00;15.90;99.90
22635;DHT22;11484;50.858;4.384;2022-10-31T07:20:27;16.00;99.90
22635;DHT22;11484;50.858;4.384;2022-10-31T07:22:53;16.00;99.90
22635;DHT22;11484;50.858;4.384;2022-10-31T07:25:18;16.10;99.90
22635;DHT22;11484;50.858;4.384;2022-10-31T07:27:44;16.10;99.90
22635;DHT22;11484;50.858;4.384;2022-10-31T07:30:11;16.20;99.90
22635;DHT22;11484;50.858;4.384;2022-10-31T07:32:41;16.20;99.90
22635;DHT22;11484;50.858;4.384;2022-10-31T07:35:08;16.20;99.90
22635;DHT22;11484;50.858;4.384;2022-10-31T07:37:34;16.20;99.90
22635;DHT22;11484;50.858;4.384;2022-10-31T07:40:00;16.20;99.90
22635;DHT22;11484;50.858;4.384;2022-10-31T07:42:25;16.20;99.90
22635;DHT22;11484;50.858;4.384;2022-10-31T07:44:51;16.20;99.90
22635;DHT22;11484;50.858;4.384;2022-10-31T07:47:17;16.30;99.90
22635;DHT22;11484;50.858;4.384;2022-10-31T07:49:42;16.20;99.90
22635;DHT22;11484;50.858;4.384;2022-10-31T07:52:08;16.10;99.90
22635;DHT22;11484;50.858;4.384;2022-10-31T07:54:34;16.00;99.90
22635;DHT22;11484;50.858;4.384;2022-10-31T07:56:59;16.00;99.90
22635;DHT22;11484;50.858;4.384;2022-10-31T07:59:25;16.20;99.90
22635;DHT22;11484;50.858;4.384;2022-10-31T08:01:52;16.30;99.90
22635;DHT22;11484;50.858;4.384;2022-10-31T08:04:18;16.20;99.90
22635;DHT22;11484;50.858;4.384;2022-10-31T08:06:44;16.20;99.90
22635;DHT22;11484;50.858;4.384;2022-10-31T08:09:09;16.20;99.90
22635;DHT22;11484;50.858;4.384;2022-10-31T08:11:35;16.30;99.90
22635;DHT22;11484;50.858;4.384;2022-10-31T08:14:01;16.40;99.90
22635;DHT22;11484;50.858;4.384;2022-10-31T08:16:27;16.50;99.90
22635;DHT22;11484;50.858;4.384;2022-10-31T08:18:52;16.70;99.90
22635;DHT22;11484;50.858;4.384;2022-10-31T08:21:21;16.70;99.90
22635;DHT22;11484;50.858;4.384;2022-10-31T08:23:46;16.70;99.90
22635;DHT22;11484;50.858;4.384;2022-10-31T08:26:12;16.70;99.90
22635;DHT22;11484;50.858;4.384;2022-10-31T08:28:38;16.70;99.90
22635;DHT22;11484;50.858;4.384;2022-10-31T08:31:03;16.80;99.90
22635;DHT22;11484;50.858;4.384;2022-10-31T08:33:30;16.80;99.90
22635;DHT22;11484;50.858;4.384;2022-10-31T08:35:58;16.80;99.90
22635;DHT22;11484;50.858;4.384;2022-10-31T08:38:24;16.90;99.90
22635;DHT22;11484;50.858;4.384;2022-10-31T08:40:50;16.90;99.90
22635;DHT22;11484;50.858;4.384;2022-10-31T08:43:17;17.00;99.90
22635;DHT22;11484;50.858;4.384;2022-10-31T08:45:48;17.00;99.90
22635;DHT22;11484;50.858;4.384;2022-10-31T08:48:15;17.00;99.90
22635;DHT22;11484;50.858;4.384;2022-10-31T08:50:43;17.00;99.90
22635;DHT22;11484;50.858;4.384;2022-10-31T08:53:14;17.00;99.90
22635;DHT22;11484;50.858;4.384;2022-10-31T08:55:41;17.20;99.90
22635;DHT22;11484;50.858;4.384;2022-10-31T08:58:10;17.30;99.90
22635;DHT22;11484;50.858;4.384;2022-10-31T09:00:36;17.30;99.90
22635;DHT22;11484;50.858;4.384;2022-10-31T09:03:04;17.20;99.90
22635;DHT22;11484;50.858;4.384;2022-10-31T09:05:32;17.20;99.90
22635;DHT22;11484;50.858;4.384;2022-10-31T09:07:59;17.20;99.90
22635;DHT22;11484;50.858;4.384;2022-10-31T09:10:25;17.20;99.90
22635;DHT22;11484;50.858;4.384;2022-10-31T09:12:56;17.20;99.90
22635;DHT22;11484;50.858;4.384;2022-10-31T09:15:22;17.40;99.90
22635;DHT22;11484;50.858;4.384;2022-10-31T09:17:48;17.50;99.90
22635;DHT22;11484;50.858;4.384;2022-10-31T09:20:13;17.50;99.90
22635;DHT22;11484;50.858;4.384;2022-10-31T09:22:39;17.50;99.90
22635;DHT22;11484;50.858;4.384;2022-10-31T09:25:05;17.40;99.90
22635;DHT22;11484;50.858;4.384;2022-10-31T09:27:31;17.20;99.90
22635;DHT22;11484;50.858;4.384;2022-10-31T09:29:56;17.10;99.90
22635;DHT22;11484;50.858;4.384;2022-10-31T09:32:22;17.10;99.90
22635;DHT22;11484;50.858;4.384;2022-10-31T09:34:48;17.10;99.90
22635;DHT22;11484;50.858;4.384;2022-10-31T09:37:14;17.10;99.90
22635;DHT22;11484;50.858;4.384;2022-10-31T09:39:39;17.10;99.90
22635;DHT22;11484;50.858;4.384;2022-10-31T09:42:41;17.20;99.90
22635;DHT22;11484;50.858;4.384;2022-10-31T09:48:15;17.30;99.90
22635;DHT22;11484;50.858;4.384;2022-10-31T09:50:51;17.30;99.90
22635;DHT22;11484;50.858;4.384;2022-10-31T09:55:56;17.30;99.90
22635;DHT22;11484;50.858;4.384;2022-10-31T09:58:28;17.30;99.90
22635;DHT22;11484;50.858;4.384;2022-10-31T10:00:59;17.30;99.90
22635;DHT22;11484;50.858;4.384;2022-10-31T10:04:02;17.50;99.90
22635;DHT22;11484;50.858;4.384;2022-10-31T10:06:31;17.50;99.90
22635;DHT22;11484;50.858;4.384;2022-10-31T10:08:58;17.60;99.90
22635;DHT22;11484;50.858;4.384;2022-10-31T10:14:53;17.90;99.90
22635;DHT22;11484;50.858;4.384;2022-10-31T10:17:41;18.00;99.90
22635;DHT22;11484;50.858;4.384;2022-10-31T10:23:43;18.20;99.90
22635;DHT22;11484;50.858;4.384;2022-10-31T10:26:20;18.20;99.90
22635;DHT22;11484;50.858;4.384;2022-10-31T10:28:57;18.10;99.90
22635;DHT22;11484;50.858;4.384;2022-10-31T10:31:28;18.20;99.90
22635;DHT22;11484;50.858;4.384;2022-10-31T10:34:07;18.40;99.90
22635;DHT22;11484;50.858;4.384;2022-10-31T10:36:42;18.50;99.90
22635;DHT22;11484;50.858;4.384;2022-10-31T10:41:45;18.50;99.90
22635;DHT22;11484;50.858;4.384;2022-10-31T10:44:12;18.60;99.90
22635;DHT22;11484;50.858;4.384;2022-10-31T10:46:42;18.50;99.90
22635;DHT22;11484;50.858;4.384;2022-10-31T10:49:51;18.60;99.90
22635;DHT22;11484;50.858;4.384;2022-10-31T11:00:27;18.80;99.90
22635;DHT22;11484;50.858;4.384;2022-10-31T11:02:56;18.80;99.90
22635;DHT22;11484;50.858;4.384;2022-10-31T11:08:11;18.80;99.90
22635;DHT22;11484;50.858;4.384;2022-10-31T11:10:37;18.70;99.90
22635;DHT22;11484;50.858;4.384;2022-10-31T11:13:17;18.70;99.90
22635;DHT22;11484;50.858;4.384;2022-10-31T11:16:02;18.60;99.90
22635;DHT22;11484;50.858;4.384;2022-10-31T11:18:31;18.30;99.90
22635;DHT22;11484;50.858;4.384;2022-10-31T11:20:59;18.30;99.90
22635;DHT22;11484;50.858;4.384;2022-10-31T11:23:27;18.40;99.90
22635;DHT22;11484;50.858;4.384;2022-10-31T11:26:04;18.50;99.90
22635;DHT22;11484;50.858;4.384;2022-10-31T11:28:33;18.60;99.90
22635;DHT22;11484;50.858;4.384;2022-10-31T11:31:08;18.60;99.90
22635;DHT22;11484;50.858;4.384;2022-10-31T11:33:35;18.60;99.90
22635;DHT22;11484;50.858;4.384;2022-10-31T11:36:14;18.60;99.90
22635;DHT22;11484;50.858;4.384;2022-10-31T11:38:42;18.50;99.90
22635;DHT22;11484;50.858;4.384;2022-10-31T11:41:15;18.50;99.90
22635;DHT22;11484;50.858;4.384;2022-10-31T11:43:55;18.40;99.90
22635;DHT22;11484;50.858;4.384;2022-10-31T11:46:39;18.40;99.90
22635;DHT22;11484;50.858;4.384;2022-10-31T11:49:27;18.40;99.90
22635;DHT22;11484;50.858;4.384;2022-10-31T11:51:56;18.50;99.90
22635;DHT22;11484;50.858;4.384;2022-10-31T11:54:32;18.40;99.90
22635;DHT22;11484;50.858;4.384;2022-10-31T11:57:02;18.50;99.90
22635;DHT22;11484;50.858;4.384;2022-10-31T11:59:30;18.70;99.90
22635;DHT22;11484;50.858;4.384;2022-10-31T12:02:00;18.60;99.90
22635;DHT22;11484;50.858;4.384;2022-10-31T12:04:41;18.70;99.90
22635;DHT22;11484;50.858;4.384;2022-10-31T12:07:07;18.70;99.90
22635;DHT22;11484;50.858;4.384;2022-10-31T12:09:34;18.80;99.90
22635;DHT22;11484;50.858;4.384;2022-10-31T12:14:59;18.80;99.90
22635;DHT22;11484;50.858;4.384;2022-10-31T12:17:48;18.90;99.90
22635;DHT22;11484;50.858;4.384;2022-10-31T12:20:20;18.80;99.90
22635;DHT22;11484;50.858;4.384;2022-10-31T12:23:15;18.80;99.90
22635;DHT22;11484;50.858;4.384;2022-10-31T12:38:42;18.70;99.90
22635;DHT22;11484;50.858;4.384;2022-10-31T12:44:29;18.70;99.90
22635;DHT22;11484;50.858;4.384;2022-10-31T12:55:40;18.90;99.90
22635;DHT22;11484;50.858;4.384;2022-10-31T12:58:21;19.10;99.90
22635;DHT22;11484;50.858;4.384;2022-10-31T13:01:04;19.10;99.90
22635;DHT22;11484;50.858;4.384;2022-10-31T13:03:42;19.10;99.90
22635;DHT22;11484;50.858;4.384;2022-10-31T13:06:14;19.20;99.90
22635;DHT22;11484;50.858;4.384;2022-10-31T13:08:57;19.20;99.90
22635;DHT22;11484;50.858;4.384;2022-10-31T13:11:46;19.30;99.90
22635;DHT22;11484;50.858;4.384;2022-10-31T13:14:25;19.30;99.90
22635;DHT22;11484;50.858;4.384;2022-10-31T13:16:53;19.30;99.90
22635;DHT22;11484;50.858;4.384;2022-10-31T13:19:38;19.30;99.90
22635;DHT22;11484;50.858;4.384;2022-10-31T13:22:24;19.40;99.90
22635;DHT22;11484;50.858;4.384;2022-10-31T13:24:59;19.40;99.90
22635;DHT22;11484;50.858;4.384;2022-10-31T13:30:41;19.50;99.90
22635;DHT22;11484;50.858;4.384;2022-10-31T13:33:18;19.30;99.90
22635;DHT22;11484;50.858;4.384;2022-10-31T13:38:24;19.20;99.90
22635;DHT22;11484;50.858;4.384;2022-10-31T13:41:14;19.20;99.90
22635;DHT22;11484;50.858;4.384;2022-10-31T13:46:49;19.20;99.90
22635;DHT22;11484;50.858;4.384;2022-10-31T13:49:39;19.20;99.90
22635;DHT22;11484;50.858;4.384;2022-10-31T13:54:47;19.20;99.90
22635;DHT22;11484;50.858;4.384;2022-10-31T13:57:38;19.10;99.90
22635;DHT22;11484;50.858;4.384;2022-10-31T14:02:48;19.10;99.90
22635;DHT22;11484;50.858;4.384;2022-10-31T14:05:34;19.10;99.90
22635;DHT22;11484;50.858;4.384;2022-10-31T14:08:04;19.20;99.90
22635;DHT22;11484;50.858;4.384;2022-10-31T14:10:38;19.20;99.90
22635;DHT22;11484;50.858;4.384;2022-10-31T14:15:52;19.30;99.90
22635;DHT22;11484;50.858;4.384;2022-10-31T14:18:29;19.30;99.90
22635;DHT22;11484;50.858;4.384;2022-10-31T14:20:56;19.30;99.90
22635;DHT22;11484;50.858;4.384;2022-10-31T14:23:36;19.30;99.90
22635;DHT22;11484;50.858;4.384;2022-10-31T14:32:05;19.30;99.90
22635;DHT22;11484;50.858;4.384;2022-10-31T14:34:56;19.40;99.90
22635;DHT22;11484;50.858;4.384;2022-10-31T14:46:01;19.30;99.90
22635;DHT22;11484;50.858;4.384;2022-10-31T14:51:25;19.40;99.90
22635;DHT22;11484;50.858;4.384;2022-10-31T14:53:53;19.50;99.90
22635;DHT22;11484;50.858;4.384;2022-10-31T14:56:28;19.50;99.90
22635;DHT22;11484;50.858;4.384;2022-10-31T14:59:00;19.40;99.90
22635;DHT22;11484;50.858;4.384;2022-10-31T15:01:35;19.40;99.90
22635;DHT22;11484;50.858;4.384;2022-10-31T15:04:27;19.50;99.90
22635;DHT22;11484;50.858;4.384;2022-10-31T15:07:19;19.40;99.90
22635;DHT22;11484;50.858;4.384;2022-10-31T15:09:54;19.40;99.90
22635;DHT22;11484;50.858;4.384;2022-10-31T15:12:24;19.40;99.90
22635;DHT22;11484;50.858;4.384;2022-10-31T15:14:50;19.30;99.90
22635;DHT22;11484;50.858;4.384;2022-10-31T15:17:16;19.30;99.90
22635;DHT22;11484;50.858;4.384;2022-10-31T15:19:42;19.30;99.90
22635;DHT22;11484;50.858;4.384;2022-10-31T15:22:16;19.20;99.90
22635;DHT22;11484;50.858;4.384;2022-10-31T15:24:42;19.10;99.90
22635;DHT22;11484;50.858;4.384;2022-10-31T15:27:16;18.90;99.90
22635;DHT22;11484;50.858;4.384;2022-10-31T15:29:54;18.90;99.90
22635;DHT22;11484;50.858;4.384;2022-10-31T15:32:28;18.80;99.90
22635;DHT22;11484;50.858;4.384;2022-10-31T15:34:55;18.80;99.90
22635;DHT22;11484;50.858;4.384;2022-10-31T15:37:25;18.80;99.90
22635;DHT22;11484;50.858;4.384;2022-10-31T15:39:51;18.70;99.90
22635;DHT22;11484;50.858;4.384;2022-10-31T15:42:32;18.70;99.90
22635;DHT22;11484;50.858;4.384;2022-10-31T15:45:17;18.70;99.90
22635;DHT22;11484;50.858;4.384;2022-10-31T15:47:57;18.60;99.90
22635;DHT22;11484;50.858;4.384;2022-10-31T15:50:41;18.60;99.90
22635;DHT22;11484;50.858;4.384;2022-10-31T15:55:54;18.50;99.90
22635;DHT22;11484;50.858;4.384;2022-10-31T15:58:21;18.40;99.90
22635;DHT22;11484;50.858;4.384;2022-10-31T16:00:59;18.40;99.90
22635;DHT22;11484;50.858;4.384;2022-10-31T16:03:28;18.40;99.90
22635;DHT22;11484;50.858;4.384;2022-10-31T16:05:59;18.30;99.90
22635;DHT22;11484;50.858;4.384;2022-10-31T16:10:55;18.30;99.90
22635;DHT22;11484;50.858;4.384;2022-10-31T16:14:33;18.40;99.90
22635;DHT22;11484;50.858;4.384;2022-10-31T16:16:28;18.30;99.90
22635;DHT22;11484;50.858;4.384;2022-10-31T16:18:55;18.30;99.90
22635;DHT22;11484;50.858;4.384;2022-10-31T16:21:31;18.30;99.90
22635;DHT22;11484;50.858;4.384;2022-10-31T16:24:13;18.30;99.90
22635;DHT22;11484;50.858;4.384;2022-10-31T16:26:40;18.30;99.90
22635;DHT22;11484;50.858;4.384;2022-10-31T16:29:28;18.30;99.90
22635;DHT22;11484;50.858;4.384;2022-10-31T16:31:54;18.40;99.90
22635;DHT22;11484;50.858;4.384;2022-10-31T16:34:21;18.40;99.90
22635;DHT22;11484;50.858;4.384;2022-10-31T16:36:47;18.40;99.90
22635;DHT22;11484;50.858;4.384;2022-10-31T16:39:13;18.40;99.90
22635;DHT22;11484;50.858;4.384;2022-10-31T16:41:45;18.40;99.90
22635;DHT22;11484;50.858;4.384;2022-10-31T16:44:21;18.40;99.90
22635;DHT22;11484;50.858;4.384;2022-10-31T16:46:47;18.40;99.90
22635;DHT22;11484;50.858;4.384;2022-10-31T16:49:13;18.50;99.90
22635;DHT22;11484;50.858;4.384;2022-10-31T16:51:41;18.40;99.90
22635;DHT22;11484;50.858;4.384;2022-10-31T16:54:07;18.40;99.90
22635;DHT22;11484;50.858;4.384;2022-10-31T16:56:36;18.30;99.90
22635;DHT22;11484;50.858;4.384;2022-10-31T16:59:05;18.30;99.90
22635;DHT22;11484;50.858;4.384;2022-10-31T17:01:32;18.30;99.90
22635;DHT22;11484;50.858;4.384;2022-10-31T17:04:00;18.30;99.90
22635;DHT22;11484;50.858;4.384;2022-10-31T17:06:26;18.20;99.90
22635;DHT22;11484;50.858;4.384;2022-10-31T17:08:53;18.20;99.90
22635;DHT22;11484;50.858;4.384;2022-10-31T17:11:23;18.10;99.90
22635;DHT22;11484;50.858;4.384;2022-10-31T17:13:50;18.10;99.90
22635;DHT22;11484;50.858;4.384;2022-10-31T17:16:15;18.10;99.90
22635;DHT22;11484;50.858;4.384;2022-10-31T17:18:41;18.00;99.90
22635;DHT22;11484;50.858;4.384;2022-10-31T17:21:21;18.10;99.90
22635;DHT22;11484;50.858;4.384;2022-10-31T17:23:48;18.00;99.90
22635;DHT22;11484;50.858;4.384;2022-10-31T17:26:15;18.00;99.90
22635;DHT22;11484;50.858;4.384;2022-10-31T17:28:40;17.90;99.90
22635;DHT22;11484;50.858;4.384;2022-10-31T17:31:21;17.90;99.90
22635;DHT22;11484;50.858;4.384;2022-10-31T17:33:48;18.00;99.90
22635;DHT22;11484;50.858;4.384;2022-10-31T17:36:13;18.00;99.90
22635;DHT22;11484;50.858;4.384;2022-10-31T17:38:39;18.00;99.90
22635;DHT22;11484;50.858;4.384;2022-10-31T17:41:06;18.00;99.90
22635;DHT22;11484;50.858;4.384;2022-10-31T17:43:33;18.00;99.90
22635;DHT22;11484;50.858;4.384;2022-10-31T17:46:01;17.90;99.90
22635;DHT22;11484;50.858;4.384;2022-10-31T17:48:27;17.90;99.90
22635;DHT22;11484;50.858;4.384;2022-10-31T17:50:53;18.00;99.90
22635;DHT22;11484;50.858;4.384;2022-10-31T17:53:19;17.90;99.90